Time;durP1;ratioP1;P1;durP2;ratioP2;P2;SDS_P1;SDS_P2;PMS_P1;PMS_P2;Temp;Humidity;BMP_temperature;BMP_pressure;BME280_temperature;BME280_humidity;BME280_pressure;Samples;Min_cycle;Max_cycle;Signal;HPM_P1;HPM_P2
2022/12/08 00:00:25;;;;;;;;;;;;;;;;;;4994654;28;7207;-74
2022/12/08 00:02:51;;;;;;;;;;;;;;;;;;4995049;28;7140;-74
2022/12/08 00:11:30;;;;;;;;;;;;;;;;;;4995117;28;6793;-74
2022/12/08 00:13:56;;;;;;;;;;;;;;;;;;4994970;28;7200;-74
2022/12/08 00:19:25;;;;;;;;;;;;;;;;;;4994615;28;6677;-74
2022/12/08 00:24:54;;;;;;;;;;;;;;;;;;4994623;28;6976;-74
2022/12/08 00:27:27;;;;;;;;;;;;;;;;;;4994724;28;7450;-74
2022/12/08 00:29:53;;;;;;;;;;;;;;;;;;4994458;28;7238;-74
2022/12/08 00:32:18;;;;;;;;;;;;;;;;;;4996586;28;7166;-74
2022/12/08 00:34:44;;;;;;;;;;;;;;;;;;4998348;28;7050;-74
2022/12/08 00:37:09;;;;;;;;;;;;;;;;;;4997915;28;8078;-74
2022/12/08 00:42:44;;;;;;;;;;;;;;;;;;4959221;28;6982;-74
2022/12/08 00:45:10;;;;;;;;;;;;;;;;;;4959251;28;7093;-74
2022/12/08 00:47:55;;;;;;;;;;;;;;;;;;4959223;28;6981;-74
2022/12/08 00:50:20;;;;;;;;;;;;;;;;;;4959130;28;7012;-74
2022/12/08 00:52:52;;;;;;;;;;;;;;;;;;4959238;28;7201;-74
2022/12/08 00:55:17;;;;;;;;;;;;;;;;;;4959211;28;7407;-74
2022/12/08 00:57:43;;;;;;;;;;;;;;;;;;4959141;28;7119;-74
2022/12/08 01:00:14;;;;;;;;;;;;;;;;;;4958882;28;7038;-74
2022/12/08 01:02:40;;;;;;;;;;;;;;;;;;4959038;28;7070;-74
2022/12/08 01:05:07;;;;;;;;;;;;;;;;;;4958781;28;7219;-74
2022/12/08 01:07:33;;;;;;;;;;;;;;;;;;4958712;28;6905;-74
2022/12/08 01:09:59;;;;;;;;;;;;;;;;;;4958675;28;7079;-74
2022/12/08 01:12:24;;;;;;;;;;;;;;;;;;4959454;28;7407;-74
2022/12/08 01:14:50;;;;;;;;;;;;;;;;;;4958789;28;7139;-74
2022/12/08 01:17:16;;;;;;;;;;;;;;;;;;4958706;28;6989;-74
2022/12/08 01:19:43;;;;;;;;;;;;;;;;;;4958553;28;7130;-74
2022/12/08 01:22:09;;;;;;;;;;;;;;;;;;4958650;28;7124;-74
2022/12/08 01:24:35;;;;;;;;;;;;;;;;;;4959314;28;7152;-74
2022/12/08 01:27:20;;;;;;;;;;;;;;;;;;4958661;28;7360;-74
2022/12/08 01:29:46;;;;;;;;;;;;;;;;;;4958083;28;7054;-74
2022/12/08 01:32:12;;;;;;;;;;;;;;;;;;4958398;28;7117;-74
2022/12/08 01:37:40;;;;;;;;;;;;;;;;;;4958091;28;7006;-75
2022/12/08 01:40:14;;;;;;;;;;;;;;;;;;4958194;28;7281;-74
2022/12/08 01:42:39;;;;;;;;;;;;;;;;;;4975962;28;6855;-74
2022/12/08 01:45:34;;;;;;;;;;;;;;;;;;4977412;28;7097;-74
2022/12/08 01:48:06;;;;;;;;;;;;;;;;;;4968202;28;7169;-75
2022/12/08 01:50:39;;;;;;;;;;;;;;;;;;4977442;28;6936;-75
2022/12/08 01:53:11;;;;;;;;;;;;;;;;;;4977295;28;6930;-75
2022/12/08 02:01:42;;;;;;;;;;;;;;;;;;4977369;28;6729;-75
2022/12/08 02:04:08;;;;;;;;;;;;;;;;;;4976873;28;6912;-75
2022/12/08 02:06:39;;;;;;;;;;;;;;;;;;4976887;28;6926;-75
2022/12/08 02:12:09;;;;;;;;;;;;;;;;;;4976864;28;6938;-74
2022/12/08 02:14:34;;;;;;;;;;;;;;;;;;4977063;28;7071;-74
2022/12/08 02:26:38;;;;;;;;;;;;;;;;;;4976608;28;6925;-74
2022/12/08 02:34:30;;;;;;;;;;;;;;;;;;5124328;23;6926;-73
2022/12/08 02:36:58;;;;;;;;;;;;;;;;;;5130334;23;7143;-73
2022/12/08 02:39:40;;;;;;;;;;;;;;;;;;5130712;23;7285;-71
2022/12/08 02:42:16;;;;;;;;;;;;;;;;;;5086947;23;7184;-74
2022/12/08 02:44:49;;;;;;;;;;;;;;;;;;4995569;28;7033;-74
2022/12/08 02:47:17;;;;;;;;;;;;;;;;;;4995425;28;7452;-75
2022/12/08 02:49:43;;;;;;;;;;;;;;;;;;4995762;28;7418;-74
2022/12/08 02:52:11;;;;;;;;;;;;;;;;;;4996052;28;7391;-74
2022/12/08 02:55:14;;;;;;;;;;;;;;;;;;4995356;28;6990;-74
2022/12/08 03:00:42;;;;;;;;;;;;;;;;;;4995616;28;6797;-74
2022/12/08 03:03:13;;;;;;;;;;;;;;;;;;4995219;28;6932;-74
2022/12/08 03:09:07;;;;;;;;;;;;;;;;;;4995401;28;6829;-74
2022/12/08 03:11:32;;;;;;;;;;;;;;;;;;4995047;28;7226;-74
2022/12/08 03:14:22;;;;;;;;;;;;;;;;;;4995466;28;7150;-74
2022/12/08 03:16:52;;;;;;;;;;;;;;;;;;4995561;28;9104;-74
2022/12/08 03:19:45;;;;;;;;;;;;;;;;;;4995348;28;7118;-74
2022/12/08 03:25:16;;;;;;;;;;;;;;;;;;4995229;28;6686;-75
2022/12/08 03:27:42;;;;;;;;;;;;;;;;;;4995256;28;7622;-74
2022/12/08 03:30:09;;;;;;;;;;;;;;;;;;4995341;28;7157;-74
2022/12/08 03:32:34;;;;;;;;;;;;;;;;;;4995158;28;7174;-74
2022/12/08 03:35:14;;;;;;;;;;;;;;;;;;4995231;28;7147;-74
2022/12/08 03:37:40;;;;;;;;;;;;;;;;;;4995280;28;7189;-74
2022/12/08 03:40:30;;;;;;;;;;;;;;;;;;4995283;28;7267;-74
2022/12/08 03:42:56;;;;;;;;;;;;;;;;;;4979095;28;7152;-74
2022/12/08 03:45:21;;;;;;;;;;;;;;;;;;4995109;28;7068;-74
2022/12/08 03:50:50;;;;;;;;;;;;;;;;;;4994971;28;6906;-74
2022/12/08 03:53:15;;;;;;;;;;;;;;;;;;4994748;28;7477;-74
2022/12/08 03:55:41;;;;;;;;;;;;;;;;;;4994715;28;7823;-74
2022/12/08 03:58:07;;;;;;;;;;;;;;;;;;5010569;28;8429;-74
2022/12/08 04:00:33;;;;;;;;;;;;;;;;;;4994978;28;7142;-74
2022/12/08 04:02:58;;;;;;;;;;;;;;;;;;4995441;28;7228;-74
2022/12/08 04:05:36;;;;;;;;;;;;;;;;;;4995009;28;7117;-75
2022/12/08 04:08:06;;;;;;;;;;;;;;;;;;4998975;28;7276;-74
2022/12/08 04:10:32;;;;;;;;;;;;;;;;;;4998691;28;7195;-75
2022/12/08 04:12:57;;;;;;;;;;;;;;;;;;4998641;28;7181;-74
2022/12/08 04:15:53;;;;;;;;;;;;;;;;;;4998654;28;7150;-74
2022/12/08 04:18:18;;;;;;;;;;;;;;;;;;4998620;28;7261;-74
2022/12/08 04:20:44;;;;;;;;;;;;;;;;;;4998544;28;7129;-74
2022/12/08 04:23:12;;;;;;;;;;;;;;;;;;4998523;28;7098;-74
2022/12/08 04:25:38;;;;;;;;;;;;;;;;;;4998330;28;6917;-75
2022/12/08 04:28:04;;;;;;;;;;;;;;;;;;4998418;28;6950;-75
2022/12/08 04:30:31;;;;;;;;;;;;;;;;;;4998858;28;7716;-75
2022/12/08 04:35:59;;;;;;;;;;;;;;;;;;4998092;28;6961;-75
2022/12/08 04:38:37;;;;;;;;;;;;;;;;;;4997924;28;6969;-74
2022/12/08 04:41:03;;;;;;;;;;;;;;;;;;4998094;28;7404;-75
2022/12/08 04:43:29;;;;;;;;;;;;;;;;;;4995308;28;6935;-75
2022/12/08 04:45:54;;;;;;;;;;;;;;;;;;4997985;28;7237;-75
2022/12/08 04:48:20;;;;;;;;;;;;;;;;;;4998044;28;7129;-75
2022/12/08 04:50:46;;;;;;;;;;;;;;;;;;4998407;28;7537;-75
2022/12/08 04:59:45;;;;;;;;;;;;;;;;;;4997688;28;6976;-75
2022/12/08 05:02:12;;;;;;;;;;;;;;;;;;4997798;28;7147;-75
2022/12/08 05:04:47;;;;;;;;;;;;;;;;;;4998300;28;7155;-75
2022/12/08 05:07:13;;;;;;;;;;;;;;;;;;4997775;28;7145;-75
2022/12/08 05:09:39;;;;;;;;;;;;;;;;;;4997608;28;6923;-75
2022/12/08 05:12:05;;;;;;;;;;;;;;;;;;4997620;28;7334;-75
2022/12/08 05:17:33;;;;;;;;;;;;;;;;;;4996891;28;6710;-75
2022/12/08 05:19:59;;;;;;;;;;;;;;;;;;4997413;28;7174;-75
2022/12/08 05:25:27;;;;;;;;;;;;;;;;;;4996905;28;6986;-75
2022/12/08 05:27:52;;;;;;;;;;;;;;;;;;4997368;28;7470;-75
2022/12/08 05:33:27;;;;;;;;;;;;;;;;;;4997051;28;7021;-75
2022/12/08 05:35:52;;;;;;;;;;;;;;;;;;4997084;28;7475;-75
2022/12/08 05:38:40;;;;;;;;;;;;;;;;;;4997226;28;7535;-75
2022/12/08 05:41:07;;;;;;;;;;;;;;;;;;4997443;28;8940;-75
2022/12/08 05:46:26;;;;;;;;;;;;;;;;;;4997766;28;7172;-75
2022/12/08 05:48:52;;;;;;;;;;;;;;;;;;4997572;28;7133;-74
2022/12/08 05:51:23;;;;;;;;;;;;;;;;;;4996437;28;6967;-75
2022/12/08 05:53:50;;;;;;;;;;;;;;;;;;4996834;28;7544;-72
2022/12/08 05:56:15;;;;;;;;;;;;;;;;;;4996763;28;7174;-75
2022/12/08 05:59:15;;;;;;;;;;;;;;;;;;4996815;28;7093;-75
2022/12/08 06:01:41;;;;;;;;;;;;;;;;;;4996716;28;7412;-75
2022/12/08 06:07:09;;;;;;;;;;;;;;;;;;4996402;28;6953;-75
2022/12/08 06:09:35;;;;;;;;;;;;;;;;;;4996477;28;7166;-75
2022/12/08 06:12:01;;;;;;;;;;;;;;;;;;4997543;28;7350;-75
2022/12/08 06:14:41;;;;;;;;;;;;;;;;;;4996577;28;7269;-75
2022/12/08 06:17:07;;;;;;;;;;;;;;;;;;4996362;28;7054;-75
2022/12/08 06:19:42;;;;;;;;;;;;;;;;;;4996267;28;7277;-75
2022/12/08 06:22:08;;;;;;;;;;;;;;;;;;4997168;28;7115;-75
2022/12/08 06:24:34;;;;;;;;;;;;;;;;;;4996003;28;6914;-75
2022/12/08 06:27:00;;;;;;;;;;;;;;;;;;4996214;28;7197;-75
2022/12/08 06:29:26;;;;;;;;;;;;;;;;;;4995177;28;8199;-75
2022/12/08 06:32:27;;;;;;;;;;;;;;;;;;4996193;28;7277;-75
2022/12/08 06:34:52;;;;;;;;;;;;;;;;;;4995978;28;7445;-75
2022/12/08 06:37:18;;;;;;;;;;;;;;;;;;4996667;28;7326;-75
2022/12/08 06:45:23;;;;;;;;;;;;;;;;;;4992183;28;7012;-75
2022/12/08 06:47:49;;;;;;;;;;;;;;;;;;4995705;28;6909;-75
2022/12/08 06:50:15;;;;;;;;;;;;;;;;;;4995684;28;7109;-75
2022/12/08 06:53:16;;;;;;;;;;;;;;;;;;4995906;28;6913;-75
2022/12/08 06:55:44;;;;;;;;;;;;;;;;;;4995740;28;7063;-75
2022/12/08 06:58:10;;;;;;;;;;;;;;;;;;4995775;28;7278;-75
2022/12/08 07:00:36;;;;;;;;;;;;;;;;;;4995211;28;7123;-75
2022/12/08 07:03:07;;;;;;;;;;;;;;;;;;4995661;28;7120;-75
2022/12/08 07:05:33;;;;;;;;;;;;;;;;;;4995407;28;7171;-75
2022/12/08 07:08:35;;;;;;;;;;;;;;;;;;4995787;28;7050;-75
2022/12/08 07:11:14;;;;;;;;;;;;;;;;;;4995505;28;7065;-75
2022/12/08 07:13:41;;;;;;;;;;;;;;;;;;4994313;28;7433;-75
2022/12/08 07:16:23;;;;;;;;;;;;;;;;;;4993914;28;7068;-75
2022/12/08 07:18:49;;;;;;;;;;;;;;;;;;4995301;28;7170;-75
2022/12/08 07:24:44;;;;;;;;;;;;;;;;;;4995214;28;6685;-74
2022/12/08 07:27:09;;;;;;;;;;;;;;;;;;4995388;28;7109;-75
2022/12/08 07:29:38;;;;;;;;;;;;;;;;;;4995203;28;7154;-75
2022/12/08 07:32:06;;;;;;;;;;;;;;;;;;4995443;28;7093;-75
2022/12/08 07:34:44;;;;;;;;;;;;;;;;;;4996107;28;7372;-75
2022/12/08 07:37:09;;;;;;;;;;;;;;;;;;4995220;28;7473;-75
2022/12/08 07:39:44;;;;;;;;;;;;;;;;;;4995407;28;7283;-75
2022/12/08 07:42:28;;;;;;;;;;;;;;;;;;4998854;28;7186;-75
2022/12/08 07:44:53;;;;;;;;;;;;;;;;;;4999402;28;7059;-75
2022/12/08 07:47:19;;;;;;;;;;;;;;;;;;4999754;28;7087;-75
2022/12/08 07:49:45;;;;;;;;;;;;;;;;;;4999790;28;7193;-75
2022/12/08 07:55:14;;;;;;;;;;;;;;;;;;4998874;28;6926;-75
2022/12/08 07:57:50;;;;;;;;;;;;;;;;;;4999025;28;7096;-75
2022/12/08 08:00:16;;;;;;;;;;;;;;;;;;4998913;28;7222;-75
2022/12/08 08:02:58;;;;;;;;;;;;;;;;;;4998578;28;7010;-75
2022/12/08 08:05:24;;;;;;;;;;;;;;;;;;4998801;28;6947;-75
2022/12/08 08:07:50;;;;;;;;;;;;;;;;;;4998804;28;7111;-75
2022/12/08 08:10:16;;;;;;;;;;;;;;;;;;4998658;28;7050;-75
2022/12/08 08:12:41;;;;;;;;;;;;;;;;;;4998668;28;7614;-75
2022/12/08 08:15:21;;;;;;;;;;;;;;;;;;4998489;28;6933;-75
2022/12/08 08:17:50;;;;;;;;;;;;;;;;;;4998618;28;7034;-75
2022/12/08 08:20:17;;;;;;;;;;;;;;;;;;4998559;28;7406;-75
2022/12/08 08:22:44;;;;;;;;;;;;;;;;;;4998210;28;7187;-75
2022/12/08 08:25:10;;;;;;;;;;;;;;;;;;4999909;28;7249;-75
2022/12/08 08:30:38;;;;;;;;;;;;;;;;;;4998235;28;6681;-75
2022/12/08 08:36:39;;;;;;;;;;;;;;;;;;4998294;28;6973;-75
2022/12/08 08:39:06;;;;;;;;;;;;;;;;;;4998498;28;7056;-75
2022/12/08 08:41:31;;;;;;;;;;;;;;;;;;4997996;28;7200;-75
2022/12/08 08:44:22;;;;;;;;;;;;;;;;;;4994861;28;7170;-75
2022/12/08 08:46:48;;;;;;;;;;;;;;;;;;4998109;28;7224;-75
2022/12/08 08:49:36;;;;;;;;;;;;;;;;;;4997930;28;7304;-75
2022/12/08 08:52:03;;;;;;;;;;;;;;;;;;4997064;28;6948;-75
2022/12/08 08:54:30;;;;;;;;;;;;;;;;;;4998026;28;7424;-75
2022/12/08 08:56:56;;;;;;;;;;;;;;;;;;4997889;28;6866;-75
2022/12/08 08:59:47;;;;;;;;;;;;;;;;;;4997874;28;7262;-75
2022/12/08 09:02:51;;;;;;;;;;;;;;;;;;4997774;28;7639;-75
2022/12/08 09:05:17;;;;;;;;;;;;;;;;;;4997859;28;7151;-75
2022/12/08 09:07:42;;;;;;;;;;;;;;;;;;4997796;28;7178;-75
2022/12/08 09:10:18;;;;;;;;;;;;;;;;;;4997638;28;7098;-75
2022/12/08 09:12:44;;;;;;;;;;;;;;;;;;4997734;28;7251;-75
2022/12/08 09:15:10;;;;;;;;;;;;;;;;;;4997643;28;7059;-75
2022/12/08 09:17:59;;;;;;;;;;;;;;;;;;4997547;28;6959;-75
2022/12/08 09:20:25;;;;;;;;;;;;;;;;;;4997678;28;7246;-75
2022/12/08 09:22:50;;;;;;;;;;;;;;;;;;4997774;28;7394;-75
2022/12/08 09:28:18;;;;;;;;;;;;;;;;;;5133270;23;6719;-69
2022/12/08 09:30:44;;;;;;;;;;;;;;;;;;5133355;23;7634;-69
2022/12/08 09:33:09;;;;;;;;;;;;;;;;;;5097405;23;7174;-71
2022/12/08 09:35:35;;;;;;;;;;;;;;;;;;5052321;23;7125;-69
2022/12/08 09:47:04;;;;;;;;;;;;;;;;;;5026148;28;6788;-68
2022/12/08 09:49:53;;;;;;;;;;;;;;;;;;5036597;28;7231;-69
2022/12/08 09:52:28;;;;;;;;;;;;;;;;;;5029313;28;7132;-68
2022/12/08 09:55:00;;;;;;;;;;;;;;;;;;5035607;28;7130;-68
2022/12/08 09:57:29;;;;;;;;;;;;;;;;;;5050667;28;6964;-68
2022/12/08 10:00:03;;;;;;;;;;;;;;;;;;5035802;28;7391;-69
2022/12/08 10:02:29;;;;;;;;;;;;;;;;;;5035909;28;7359;-69
2022/12/08 10:11:10;;;;;;;;;;;;;;;;;;5032824;28;6921;-69
2022/12/08 10:13:42;;;;;;;;;;;;;;;;;;5015844;28;8248;-69
2022/12/08 10:22:33;;;;;;;;;;;;;;;;;;5015272;28;6704;-69
2022/12/08 10:25:04;;;;;;;;;;;;;;;;;;5014364;28;7271;-69
2022/12/08 10:30:21;;;;;;;;;;;;;;;;;;5015833;28;7147;-69
2022/12/08 10:35:51;;;;;;;;;;;;;;;;;;5013832;28;6902;-69
2022/12/08 10:38:27;;;;;;;;;;;;;;;;;;5015522;28;7326;-69
2022/12/08 10:41:00;;;;;;;;;;;;;;;;;;5014714;28;8466;-69
2022/12/08 10:49:28;;;;;;;;;;;;;;;;;;5024844;28;6753;-69
2022/12/08 10:54:59;;;;;;;;;;;;;;;;;;5015196;28;6685;-69
2022/12/08 10:57:44;;;;;;;;;;;;;;;;;;5015031;28;7040;-69
2022/12/08 11:00:15;;;;;;;;;;;;;;;;;;5015621;28;7188;-69
2022/12/08 11:03:04;;;;;;;;;;;;;;;;;;5015182;28;7223;-69
2022/12/08 11:05:33;;;;;;;;;;;;;;;;;;5015013;28;7045;-69
2022/12/08 11:07:59;;;;;;;;;;;;;;;;;;5014838;28;7201;-69
2022/12/08 11:10:34;;;;;;;;;;;;;;;;;;5015070;28;7046;-69
2022/12/08 11:13:17;;;;;;;;;;;;;;;;;;5015058;28;7178;-69
2022/12/08 11:15:45;;;;;;;;;;;;;;;;;;5014707;28;7041;-69
2022/12/08 11:18:40;;;;;;;;;;;;;;;;;;5014947;28;7036;-69
2022/12/08 11:21:09;;;;;;;;;;;;;;;;;;5014938;28;7211;-69
2022/12/08 11:23:36;;;;;;;;;;;;;;;;;;5024762;28;7208;-69
2022/12/08 11:26:07;;;;;;;;;;;;;;;;;;5034507;28;7228;-69
2022/12/08 11:28:37;;;;;;;;;;;;;;;;;;5034667;28;7036;-68
2022/12/08 11:31:09;;;;;;;;;;;;;;;;;;5034397;28;7088;-69
2022/12/08 11:34:11;;;;;;;;;;;;;;;;;;5034506;28;7181;-69
2022/12/08 11:36:38;;;;;;;;;;;;;;;;;;4995091;28;9080;-69
2022/12/08 11:39:13;;;;;;;;;;;;;;;;;;4994838;28;7333;-69
2022/12/08 11:41:43;;;;;;;;;;;;;;;;;;4995146;28;6993;-69
2022/12/08 11:47:13;;;;;;;;;;;;;;;;;;4994871;28;7147;-69
2022/12/08 11:49:40;;;;;;;;;;;;;;;;;;4995195;28;7211;-69
2022/12/08 11:55:29;;;;;;;;;;;;;;;;;;4994718;28;7104;-69
2022/12/08 12:01:16;;;;;;;;;;;;;;;;;;4994806;28;7471;-68
2022/12/08 12:03:47;;;;;;;;;;;;;;;;;;4985021;28;7278;-69
2022/12/08 12:06:28;;;;;;;;;;;;;;;;;;4975488;28;7231;-69
2022/12/08 12:08:56;;;;;;;;;;;;;;;;;;4975441;28;7230;-69
2022/12/08 12:21:01;;;;;;;;;;;;;;;;;;4975564;28;6674;-69
2022/12/08 12:23:40;;;;;;;;;;;;;;;;;;4975061;28;7459;-69
2022/12/08 12:29:35;;;;;;;;;;;;;;;;;;4978105;28;6977;-69
2022/12/08 12:32:03;;;;;;;;;;;;;;;;;;4979452;28;6905;-69
2022/12/08 12:37:47;;;;;;;;;;;;;;;;;;5017656;28;6693;-69
2022/12/08 12:40:19;;;;;;;;;;;;;;;;;;5017825;28;7174;-69
2022/12/08 12:51:54;;;;;;;;;;;;;;;;;;5017429;28;6736;-69
2022/12/08 12:54:25;;;;;;;;;;;;;;;;;;5017514;28;7597;-69
2022/12/08 12:56:56;;;;;;;;;;;;;;;;;;5017704;28;7385;-69
2022/12/08 13:05:08;;;;;;;;;;;;;;;;;;5017693;28;6955;-69
2022/12/08 13:07:54;;;;;;;;;;;;;;;;;;5017257;28;7038;-69
2022/12/08 13:10:25;;;;;;;;;;;;;;;;;;5017679;28;7258;-69
2022/12/08 13:13:19;;;;;;;;;;;;;;;;;;5017225;28;7460;-69
2022/12/08 13:15:47;;;;;;;;;;;;;;;;;;5017244;28;7250;-69
2022/12/08 13:18:23;;;;;;;;;;;;;;;;;;5017086;28;7155;-69
2022/12/08 13:21:10;;;;;;;;;;;;;;;;;;5019124;28;7234;-69
2022/12/08 13:30:15;;;;;;;;;;;;;;;;;;5016725;28;6693;-69
2022/12/08 13:36:12;;;;;;;;;;;;;;;;;;5010342;28;7039;-69
2022/12/08 13:38:53;;;;;;;;;;;;;;;;;;5017471;28;7111;-69
2022/12/08 13:41:21;;;;;;;;;;;;;;;;;;5016709;28;7649;-69
2022/12/08 13:44:12;;;;;;;;;;;;;;;;;;5016675;28;7108;-69
2022/12/08 13:46:48;;;;;;;;;;;;;;;;;;5004764;28;9133;-69
2022/12/08 13:49:17;;;;;;;;;;;;;;;;;;5016574;28;6939;-69
2022/12/08 13:57:49;;;;;;;;;;;;;;;;;;5016285;28;6892;-69
2022/12/08 14:00:20;;;;;;;;;;;;;;;;;;5016399;28;7359;-69
2022/12/08 14:02:50;;;;;;;;;;;;;;;;;;5015915;28;7192;-69
2022/12/08 14:05:19;;;;;;;;;;;;;;;;;;5015907;28;7608;-69
2022/12/08 14:08:04;;;;;;;;;;;;;;;;;;5031362;28;8521;-69
2022/12/08 14:10:30;;;;;;;;;;;;;;;;;;5015515;28;7200;-69
2022/12/08 14:16:27;;;;;;;;;;;;;;;;;;5015844;28;6921;-69
2022/12/08 14:18:52;;;;;;;;;;;;;;;;;;5016004;28;7089;-69
2022/12/08 14:21:45;;;;;;;;;;;;;;;;;;5015717;28;6965;-69
2022/12/08 14:24:11;;;;;;;;;;;;;;;;;;5016243;28;7180;-69
2022/12/08 14:26:38;;;;;;;;;;;;;;;;;;5015488;28;7225;-69
2022/12/08 14:29:07;;;;;;;;;;;;;;;;;;5015735;28;7078;-69
2022/12/08 14:31:35;;;;;;;;;;;;;;;;;;5014802;28;7444;-68
2022/12/08 14:34:01;;;;;;;;;;;;;;;;;;5014788;28;7119;-69
2022/12/08 14:36:27;;;;;;;;;;;;;;;;;;5014857;28;7108;-69
2022/12/08 14:39:02;;;;;;;;;;;;;;;;;;5015561;28;7125;-69
2022/12/08 14:41:32;;;;;;;;;;;;;;;;;;5015698;28;7205;-69
2022/12/08 14:44:17;;;;;;;;;;;;;;;;;;5015371;28;7470;-69
2022/12/08 14:49:53;;;;;;;;;;;;;;;;;;5015207;28;6970;-69
2022/12/08 14:52:19;;;;;;;;;;;;;;;;;;5015344;28;7282;-69
2022/12/08 14:55:00;;;;;;;;;;;;;;;;;;5015517;28;7112;-69
2022/12/08 14:57:34;;;;;;;;;;;;;;;;;;5015425;28;7131;-68
2022/12/08 15:00:06;;;;;;;;;;;;;;;;;;5014148;28;7000;-69
2022/12/08 15:02:32;;;;;;;;;;;;;;;;;;5014961;28;6836;-69
2022/12/08 15:05:01;;;;;;;;;;;;;;;;;;5015354;28;6851;-68
2022/12/08 15:07:29;;;;;;;;;;;;;;;;;;5015219;28;7274;-69
2022/12/08 15:10:10;;;;;;;;;;;;;;;;;;5015260;28;7144;-69
2022/12/08 15:12:35;;;;;;;;;;;;;;;;;;5015058;28;7165;-69
2022/12/08 15:15:16;;;;;;;;;;;;;;;;;;5014953;28;6932;-68
2022/12/08 15:17:45;;;;;;;;;;;;;;;;;;5015070;28;7106;-68
2022/12/08 15:20:29;;;;;;;;;;;;;;;;;;5015001;28;7511;-69
2022/12/08 15:22:55;;;;;;;;;;;;;;;;;;5014982;28;7256;-69
2022/12/08 15:25:23;;;;;;;;;;;;;;;;;;5014524;28;6958;-69
2022/12/08 15:28:05;;;;;;;;;;;;;;;;;;5015021;28;7228;-68
2022/12/08 15:30:32;;;;;;;;;;;;;;;;;;5014738;28;7258;-69
2022/12/08 15:32:58;;;;;;;;;;;;;;;;;;5014959;28;7126;-69
2022/12/08 15:35:23;;;;;;;;;;;;;;;;;;5014210;28;7110;-69
2022/12/08 15:38:00;;;;;;;;;;;;;;;;;;5013880;28;6919;-69
2022/12/08 15:40:34;;;;;;;;;;;;;;;;;;5017803;28;7237;-69
2022/12/08 15:43:01;;;;;;;;;;;;;;;;;;5012848;28;6834;-69
2022/12/08 15:45:31;;;;;;;;;;;;;;;;;;5014396;28;7186;-69
2022/12/08 15:47:58;;;;;;;;;;;;;;;;;;5129833;23;7124;-71
2022/12/08 15:52:55;;;;;;;;;;;;;;;;;;5267104;23;6925;-71
2022/12/08 15:57:56;;;;;;;;;;;;;;;;;;4993020;28;7502;-68
2022/12/08 16:00:23;;;;;;;;;;;;;;;;;;4974408;28;8805;-68
2022/12/08 16:02:49;;;;;;;;;;;;;;;;;;4977394;28;8674;-68
2022/12/08 16:05:14;;;;;;;;;;;;;;;;;;4979491;28;7355;-68
2022/12/08 16:07:40;;;;;;;;;;;;;;;;;;4979311;28;6980;-69
2022/12/08 16:10:07;;;;;;;;;;;;;;;;;;4978853;28;7046;-69
2022/12/08 16:15:17;;;;;;;;;;;;;;;;;;4971346;28;6796;-69
2022/12/08 16:17:43;;;;;;;;;;;;;;;;;;4967822;28;7134;-68
2022/12/08 16:20:12;;;;;;;;;;;;;;;;;;4959265;28;7406;-68
2022/12/08 16:22:38;;;;;;;;;;;;;;;;;;4959475;28;7071;-69
2022/12/08 16:25:15;;;;;;;;;;;;;;;;;;4959492;28;7393;-68
2022/12/08 16:27:58;;;;;;;;;;;;;;;;;;4944248;28;7263;-69
2022/12/08 16:30:38;;;;;;;;;;;;;;;;;;4970730;28;7203;-68
2022/12/08 16:33:16;;;;;;;;;;;;;;;;;;4968275;28;7162;-71
2022/12/08 16:35:58;;;;;;;;;;;;;;;;;;4930954;28;7093;-69
2022/12/08 16:38:30;;;;;;;;;;;;;;;;;;4972222;28;7262;-69
2022/12/08 16:43:47;;;;;;;;;;;;;;;;;;4978959;28;6952;-69
2022/12/08 16:55:20;;;;;;;;;;;;;;;;;;4938658;29;7050;-69
2022/12/08 16:57:56;;;;;;;;;;;;;;;;;;4919814;29;7482;-69
2022/12/08 17:00:37;;;;;;;;;;;;;;;;;;4887086;29;7055;-69
2022/12/08 17:03:21;;;;;;;;;;;;;;;;;;4887631;29;6959;-69
2022/12/08 17:05:54;;;;;;;;;;;;;;;;;;4903557;29;6982;-69
2022/12/08 17:08:33;;;;;;;;;;;;;;;;;;4903197;29;7474;-69
2022/12/08 17:11:11;;;;;;;;;;;;;;;;;;4918208;29;6900;-69
2022/12/08 17:13:56;;;;;;;;;;;;;;;;;;4917561;29;6960;-69
2022/12/08 17:16:28;;;;;;;;;;;;;;;;;;4887244;29;7046;-69
2022/12/08 17:19:02;;;;;;;;;;;;;;;;;;4914557;29;7043;-74
2022/12/08 17:21:41;;;;;;;;;;;;;;;;;;4908408;29;7201;-74
2022/12/08 17:24:13;;;;;;;;;;;;;;;;;;4899613;29;6959;-74
2022/12/08 17:26:46;;;;;;;;;;;;;;;;;;4911161;29;7342;-74
2022/12/08 17:29:22;;;;;;;;;;;;;;;;;;4918320;29;6931;-69
2022/12/08 17:31:55;;;;;;;;;;;;;;;;;;4918149;29;7019;-74
2022/12/08 17:37:16;;;;;;;;;;;;;;;;;;4918362;29;6793;-74
2022/12/08 17:39:47;;;;;;;;;;;;;;;;;;4887318;29;7052;-74
2022/12/08 17:42:13;;;;;;;;;;;;;;;;;;4917807;29;7054;-74
2022/12/08 17:44:45;;;;;;;;;;;;;;;;;;4918205;29;7014;-69
2022/12/08 17:47:23;;;;;;;;;;;;;;;;;;4917834;29;7412;-74
2022/12/08 17:49:59;;;;;;;;;;;;;;;;;;4917915;29;7067;-74
2022/12/08 17:52:30;;;;;;;;;;;;;;;;;;4918015;29;7238;-74
2022/12/08 17:55:02;;;;;;;;;;;;;;;;;;4917430;29;7042;-74
2022/12/08 17:57:33;;;;;;;;;;;;;;;;;;4932181;29;7318;-75
2022/12/08 18:00:16;;;;;;;;;;;;;;;;;;4936706;29;7263;-75
2022/12/08 18:02:47;;;;;;;;;;;;;;;;;;4936735;29;7187;-69
2022/12/08 18:05:17;;;;;;;;;;;;;;;;;;4936431;29;7137;-75
2022/12/08 18:07:47;;;;;;;;;;;;;;;;;;4936886;29;6977;-75
2022/12/08 18:10:16;;;;;;;;;;;;;;;;;;4936380;29;6912;-75
2022/12/08 18:12:44;;;;;;;;;;;;;;;;;;4936601;29;7176;-69
2022/12/08 18:15:15;;;;;;;;;;;;;;;;;;4946549;28;6845;-68
2022/12/08 18:17:43;;;;;;;;;;;;;;;;;;4957043;28;6826;-69
2022/12/08 18:20:10;;;;;;;;;;;;;;;;;;4957565;28;7007;-75
2022/12/08 18:22:36;;;;;;;;;;;;;;;;;;4957186;28;6891;-75
2022/12/08 18:25:03;;;;;;;;;;;;;;;;;;4956036;28;8237;-75
2022/12/08 18:27:28;;;;;;;;;;;;;;;;;;4956564;28;7087;-75
2022/12/08 18:29:54;;;;;;;;;;;;;;;;;;4957328;28;7056;-75
2022/12/08 18:32:22;;;;;;;;;;;;;;;;;;4957316;28;7060;-75
2022/12/08 18:34:49;;;;;;;;;;;;;;;;;;4957515;28;7189;-75
2022/12/08 18:37:14;;;;;;;;;;;;;;;;;;4957185;28;6978;-75
2022/12/08 18:39:40;;;;;;;;;;;;;;;;;;4957425;28;7378;-75
2022/12/08 18:42:21;;;;;;;;;;;;;;;;;;4957209;28;7407;-76
2022/12/08 18:44:48;;;;;;;;;;;;;;;;;;4957313;28;7484;-75
2022/12/08 18:47:14;;;;;;;;;;;;;;;;;;4956700;28;7047;-75
2022/12/08 18:49:40;;;;;;;;;;;;;;;;;;4957102;28;6988;-75
2022/12/08 18:52:06;;;;;;;;;;;;;;;;;;4957214;28;7189;-75
2022/12/08 18:54:32;;;;;;;;;;;;;;;;;;4957487;28;7373;-75
2022/12/08 18:56:57;;;;;;;;;;;;;;;;;;4967325;28;7139;-75
2022/12/08 18:59:23;;;;;;;;;;;;;;;;;;4976279;28;7396;-75
2022/12/08 19:01:49;;;;;;;;;;;;;;;;;;4976218;28;7235;-75
2022/12/08 19:04:14;;;;;;;;;;;;;;;;;;4976270;28;7124;-75
2022/12/08 19:06:40;;;;;;;;;;;;;;;;;;4976480;28;7210;-75
2022/12/08 19:09:06;;;;;;;;;;;;;;;;;;4975836;28;7159;-76
2022/12/08 19:11:32;;;;;;;;;;;;;;;;;;4976049;28;7095;-75
2022/12/08 19:13:58;;;;;;;;;;;;;;;;;;4976126;28;6925;-75
2022/12/08 19:16:23;;;;;;;;;;;;;;;;;;4975905;28;7065;-76
2022/12/08 19:18:49;;;;;;;;;;;;;;;;;;4976146;28;7323;-75
2022/12/08 19:21:15;;;;;;;;;;;;;;;;;;4975898;28;7063;-75
2022/12/08 19:23:40;;;;;;;;;;;;;;;;;;4977015;28;7078;-75
2022/12/08 19:26:07;;;;;;;;;;;;;;;;;;4960286;28;7158;-75
2022/12/08 19:28:34;;;;;;;;;;;;;;;;;;4956573;28;7208;-75
2022/12/08 19:31:04;;;;;;;;;;;;;;;;;;4956501;28;7010;-76
2022/12/08 19:33:30;;;;;;;;;;;;;;;;;;4956232;29;6955;-75
2022/12/08 19:35:55;;;;;;;;;;;;;;;;;;4956274;28;7704;-75
2022/12/08 19:38:21;;;;;;;;;;;;;;;;;;4956396;29;6929;-75
2022/12/08 19:46:15;;;;;;;;;;;;;;;;;;4956803;29;6938;-76
2022/12/08 19:48:41;;;;;;;;;;;;;;;;;;4956149;29;6943;-75
2022/12/08 19:51:07;;;;;;;;;;;;;;;;;;4956342;29;7222;-75
2022/12/08 19:53:33;;;;;;;;;;;;;;;;;;4956295;29;7217;-75
2022/12/08 19:55:58;;;;;;;;;;;;;;;;;;4956188;29;7019;-75
2022/12/08 19:58:24;;;;;;;;;;;;;;;;;;4956315;29;7140;-75
2022/12/08 20:00:50;;;;;;;;;;;;;;;;;;4956338;29;7180;-76
2022/12/08 20:03:19;;;;;;;;;;;;;;;;;;4956473;29;7347;-75
2022/12/08 20:05:47;;;;;;;;;;;;;;;;;;4955957;29;7028;-75
2022/12/08 20:08:13;;;;;;;;;;;;;;;;;;4956337;29;7146;-75
2022/12/08 20:10:40;;;;;;;;;;;;;;;;;;4955888;29;7422;-75
2022/12/08 20:15:51;;;;;;;;;;;;;;;;;;4956703;29;6796;-75
2022/12/08 20:18:17;;;;;;;;;;;;;;;;;;4956131;29;7375;-75
2022/12/08 20:20:44;;;;;;;;;;;;;;;;;;4956190;29;7046;-75
2022/12/08 20:23:10;;;;;;;;;;;;;;;;;;4956050;29;7156;-75
2022/12/08 20:25:37;;;;;;;;;;;;;;;;;;4956152;29;7168;-75
2022/12/08 20:28:04;;;;;;;;;;;;;;;;;;4954616;29;7439;-75
2022/12/08 20:30:30;;;;;;;;;;;;;;;;;;4955771;29;7443;-75
2022/12/08 20:32:55;;;;;;;;;;;;;;;;;;4956076;29;7039;-75
2022/12/08 20:35:21;;;;;;;;;;;;;;;;;;4956042;29;7074;-75
2022/12/08 20:37:47;;;;;;;;;;;;;;;;;;4955869;29;6978;-75
2022/12/08 20:40:13;;;;;;;;;;;;;;;;;;4955991;29;6945;-75
2022/12/08 20:42:39;;;;;;;;;;;;;;;;;;4955566;29;7105;-75
2022/12/08 20:45:07;;;;;;;;;;;;;;;;;;4955960;29;7236;-75
2022/12/08 20:47:34;;;;;;;;;;;;;;;;;;4955936;28;7397;-75
2022/12/08 20:49:59;;;;;;;;;;;;;;;;;;4958697;28;7222;-76
2022/12/08 20:52:25;;;;;;;;;;;;;;;;;;4959250;28;7373;-75
2022/12/08 20:54:50;;;;;;;;;;;;;;;;;;4959142;28;7145;-75
2022/12/08 20:57:16;;;;;;;;;;;;;;;;;;4958708;28;7066;-75
2022/12/08 20:59:43;;;;;;;;;;;;;;;;;;4959113;28;7124;-75
2022/12/08 21:02:09;;;;;;;;;;;;;;;;;;4959231;28;7174;-75
2022/12/08 21:04:35;;;;;;;;;;;;;;;;;;4958755;28;6938;-75
2022/12/08 21:07:01;;;;;;;;;;;;;;;;;;4959311;28;7468;-75
2022/12/08 21:09:27;;;;;;;;;;;;;;;;;;4958953;28;6970;-75
2022/12/08 21:11:53;;;;;;;;;;;;;;;;;;4958838;28;7376;-75
2022/12/08 21:14:19;;;;;;;;;;;;;;;;;;4958825;28;7195;-75
2022/12/08 21:16:44;;;;;;;;;;;;;;;;;;4958780;28;7348;-75